Latest Coastal Weather Observations for Truscott

IDD60701

Issued at 5:41 pm CST Monday 25 July 2016 (issued every 10 minutes, with the page automatically refreshed every 10 minutes)

About coastal observations | Map of coastal stations | Coastal observations for NT | Marine services | Other Formats
Station Details ID: 001020 Name: TRUSCOTT Lat: -14.09 Lon: 126.39 Height: 51.0 m
Data from the previous 72 hours. | See also: Recent months at Truscott
Date/Time
CST
Temp
°C
Wind Pressure Rain since
9am
mm
Weather Cloud Vis
km
Sea
Height
m
Swell
Dir  Spd
kts
Gust
kts
hPa Trend Height
m
Period
s
Dir
25/05:30pm 28.7 N 9 16 1010.1 - 0.0 - - 10 - - - -
25/05:00pm 29.6 NNE 9 14 1010.0 - 0.0 - - 10 - - - -
25/04:30pm 30.9 N 9 15 1009.9 - 0.0 - - 10 - - - -
25/04:00pm 31.2 N 9 14 1009.9 - 0.0 - - 10 - - - -
25/03:30pm 30.7 NNE 11 16 1009.8 - 0.0 - - 10 - - - -
25/03:00pm 31.8 N 12 16 1009.9 - 0.0 - - 10 - - - -
25/02:30pm 33.1 NNE 8 13 1010.1 - 0.0 - - 10 - - - -
25/02:00pm 33.3 ENE 8 13 1010.7 - 0.0 - - 10 - - - -
25/01:30pm 32.6 E 9 13 1011.3 - 0.0 - - 10 - - - -
25/01:00pm 32.4 E 9 14 1011.8 - 0.0 - - 10 - - - -
25/12:30pm 32.0 ENE 9 13 1012.4 - 0.0 - - 10 - - - -
25/12:00pm 31.1 E 10 15 1013.0 - 0.0 - - 10 - - - -
25/11:30am 31.3 ESE 11 16 1013.2 - 0.0 - - 10 - - - -
25/11:00am 31.2 ESE 10 17 1013.4 - 0.0 - - 10 - - - -
25/10:30am 30.6 SE 9 14 1013.4 - 0.0 - - 10 - - - -
25/10:00am 29.3 SE 6 12 1013.4 - 0.0 - Partly cloudy 10 - - - -
25/09:30am 27.9 SE 4 7 1013.3 - 0.0 - - 10 - - - -
25/09:00am 27.2 SSE 4 7 1013.0 - 0.0 - Partly cloudy 10 - - - -
25/08:30am 24.5 SSE 4 6 1012.7 - 0.0 - - 10 - - - -
25/08:00am 23.1 SSE 4 5 1012.4 - 0.0 - Partly cloudy 10 - - - -
25/07:30am 21.6 SSE 3 4 1012.1 - 0.0 - Mostly clear 9 - - - -
25/07:00am 22.4 SE 4 6 1011.8 - 0.0 - Partly cloudy 10 - - - -
25/06:30am 21.1 ESE 4 5 1011.7 - 0.0 - Partly cloudy 9 - - - -
25/06:00am 21.6 SSE 4 4 1011.5 - 0.0 - Partly cloudy 10 - - - -
25/05:30am 22.1 SSE 4 5 1011.3 - 0.0 - Partly cloudy 10 - - - -
25/05:00am 22.1 SSE 4 5 1011.5 - 0.0 - Partly cloudy 9 - - - -
25/04:30am 22.2 ESE 3 4 1011.1 - 0.0 - Partly cloudy 10 - - - -
25/04:00am 22.5 S 3 4 1011.2 - 0.0 - Partly cloudy 10 - - - -
25/03:30am 22.4 SSE 4 5 1011.5 - 0.0 - Partly cloudy 10 - - - -
25/03:00am 22.2 SSE 3 5 1011.6 - 0.0 - Partly cloudy 10 - - - -
25/02:30am 21.9 SSE 3 4 1011.9 - 0.0 - - 9 - - - -
25/02:00am 22.2 SSE 3 4 1012.1 - 0.0 - - 8 - - - -
25/01:33am 22.1 SSE 3 5 1012.4 - 0.0 - - 10 - - - -
25/01:30am 22.0 SSE 3 4 1012.4 - 0.0 - - 6 - - - -
25/01:22am 22.1 SSE 2 4 1012.4 - 0.0 - - 5 - - - -
25/01:00am 22.5 CALM 0 0 1012.5 - 0.0 - - 9 - - - -
25/12:30am 22.9 SSW 2 4 1012.8 - 0.0 - - 10 - - - -
25/12:00am 22.5 CALM 0 0 1012.8 - 0.0 - - 10 - - - -
 
Date/Time
CST
Temp
°C
Wind Pressure Rain since
9am
mm
Weather Cloud Vis
km
Sea
Height
m
Swell
Dir  Spd
kts
Gust
kts
hPa Trend Height
m
Period
s
Dir
24/11:30pm 22.9 CALM 0 0 1013.0 - 0.0 - - 10 - - - -
24/11:00pm 23.1 CALM 0 0 1013.0 - 0.0 - - 10 - - - -
24/10:30pm 23.6 SSE 4 5 1013.0 - 0.0 - - 10 - - - -
24/10:00pm 23.7 SSE 4 5 1012.8 - 0.0 - - 10 - - - -
24/09:30pm 23.7 S 1 3 1012.3 - 0.0 - - 10 - - - -
24/09:00pm 24.6 CALM 0 0 1011.9 - 0.0 - - 10 - - - -
24/08:30pm 25.3 NNW 1 4 1011.7 - 0.0 - - 10 - - - -
24/08:00pm 26.1 NNE 3 4 1011.2 - 0.0 - - 10 - - - -
24/07:30pm 26.6 N 4 6 1010.8 - 0.0 - - 10 - - - -
24/07:00pm 27.2 N 6 8 1010.4 - 0.0 - - 10 - - - -
24/06:30pm 28.0 N 7 11 1009.9 - 0.0 - - 10 - - - -
24/06:00pm 29.0 N 7 10 1009.6 - 0.0 - - 10 - - - -
24/05:30pm 29.4 NNE 9 15 1009.4 - 0.0 - - 10 - - - -
24/05:00pm 30.1 NNE 10 16 1009.2 - 0.0 - - 10 - - - -
24/04:30pm 30.9 NNE 10 14 1009.1 - 0.0 - - 10 - - - -
24/04:00pm 31.3 NNE 12 18 1009.0 - 0.0 - - 10 - - - -
24/03:30pm 31.7 N 10 16 1009.1 - 0.0 - - 10 - - - -
24/03:00pm 33.9 N 6 10 1009.0 - 0.0 - - 10 - - - -
24/02:30pm 35.5 E 7 11 1009.5 - 0.0 - - 10 - - - -
24/02:00pm 34.9 ENE 9 14 1010.2 - 0.0 - - 10 - - - -
24/01:30pm 34.6 ENE 9 13 1010.8 - 0.0 - - 10 - - - -
24/01:00pm 34.4 E 9 14 1011.3 - 0.0 - - 10 - - - -
24/12:30pm 34.0 E 8 13 1011.9 - 0.0 - - 10 - - - -
24/12:00pm 33.6 ESE 9 12 1012.2 - 0.0 - - 10 - - - -
24/11:30am 33.0 N 4 6 1012.5 - 0.0 - - 10 - - - -
24/11:00am 31.5 SW 6 9 1012.8 - 0.0 - - 10 - - - -
24/10:30am 31.1 SW 7 10 1012.9 - 0.0 - - 10 - - - -
24/10:00am 29.6 SW 7 9 1013.0 - 0.0 - - 10 - - - -
24/09:30am 28.1 SW 7 9 1012.8 - 0.0 - - 10 - - - -
24/09:00am 26.0 SW 6 8 1012.5 - 0.0 - - 10 - - - -
24/08:30am 24.4 SW 6 7 1012.1 - 0.0 - - 10 - - - -
24/08:00am 24.7 SSW 5 7 1011.8 - 0.0 - - 10 - - - -
24/07:30am 23.6 SSW 6 9 1011.7 - 0.0 - - 10 - - - -
24/07:00am 22.9 SSW 6 8 1011.4 - 0.0 - - 10 - - - -
24/06:30am 20.4 CALM 0 3 1011.3 - 0.0 - - 10 - - - -
24/06:00am 21.9 CALM 0 0 1011.1 - 0.0 - - 10 - - - -
24/05:30am 23.2 SW 4 6 1011.1 - 0.0 - - 10 - - - -
24/05:00am 24.1 SSW 5 6 1010.9 - 0.0 - - 10 - - - -
24/04:30am 23.7 SSW 6 7 1010.8 - 0.0 - - 10 - - - -
24/04:00am 21.4 SSW 3 5 1011.0 - 0.0 - - 10 - - - -
24/03:30am 21.5 S 3 4 1011.3 - 0.0 - - 10 - - - -
24/03:00am 23.7 SW 4 5 1011.4 - 0.0 - - 10 - - - -
24/02:30am 23.3 SSW 5 6 1011.8 - 0.0 - - 8 - - - -
24/02:00am 22.1 SSW 2 3 1011.9 - 0.0 - - 10 - - - -
24/01:30am 22.2 SW 3 4 1012.0 - 0.0 - - 10 - - - -
24/01:00am 22.0 SSW 4 5 1012.0 - 0.0 - - 10 - - - -
24/12:30am 22.0 CALM 0 0 1011.8 - 0.0 - - 10 - - - -
24/12:00am 22.1 CALM 0 0 1012.0 - 0.0 - - 10 - - - -
 
Date/Time
CST
Temp
°C
Wind Pressure Rain since
9am
mm
Weather Cloud Vis
km
Sea
Height
m
Swell
Dir  Spd
kts
Gust
kts
hPa Trend Height
m
Period
s
Dir
23/11:30pm 22.5 CALM 0 0 1012.1 - 0.0 - - 10 - - - -
23/11:00pm 22.7 CALM 0 0 1011.9 - 0.0 - - 9 - - - -
23/10:30pm 22.7 CALM 0 0 1011.7 - 0.0 - - 10 - - - -
23/10:00pm 23.0 CALM 0 0 1011.5 - 0.0 - - 10 - - - -
23/09:30pm 23.4 CALM 0 0 1011.4 - 0.0 - - 10 - - - -
23/09:00pm 23.9 CALM 0 0 1011.3 - 0.0 - - 8 - - - -
23/08:30pm 24.8 CALM 0 0 1010.9 - 0.0 - - 10 - - - -
23/08:00pm 25.6 CALM 0 0 1010.4 - 0.0 - - 9 - - - -
23/07:30pm 26.3 NW 3 4 1010.1 - 0.0 - - 10 - - - -
23/07:00pm 27.3 NNW 4 5 1009.9 - 0.0 - - 9 - - - -
23/06:30pm 28.2 NNW 5 8 1009.7 - 0.0 - - 10 - - - -
23/06:00pm 29.3 NNW 6 9 1009.5 - 0.0 - - 10 - - - -
23/05:30pm 30.5 NNW 6 8 1009.3 - 0.0 - - 10 - - - -
23/05:00pm 30.4 N 7 12 1009.0 - 0.0 - - 10 - - - -
23/04:30pm 31.0 N 8 13 1008.9 - 0.0 - - 10 - - - -
23/04:00pm 30.6 N 10 15 1009.1 - 0.0 - - 10 - - - -
23/03:30pm 30.5 N 9 16 1009.4 - 0.0 - - 10 - - - -
23/03:00pm 31.8 NNW 9 13 1009.7 - 0.0 - - 10 - - - -
23/02:30pm 31.9 N 8 12 1010.3 - 0.0 - - 10 - - - -
23/02:00pm 32.2 N 7 9 1010.9 - 0.0 - - 10 - - - -
23/01:30pm 33.0 ENE 7 11 1011.2 - 0.0 - - 10 - - - -
23/01:00pm 32.2 ENE 8 14 1011.7 - 0.0 - - 10 - - - -
23/12:30pm 32.7 E 8 13 1012.1 - 0.0 - - 10 - - - -
23/12:00pm 31.8 SW 4 6 1012.4 - 0.0 - - 10 - - - -
23/11:30am 31.1 S 5 8 1013.0 - 0.0 - - 9 - - - -
23/11:00am 30.2 SSW 7 9 1013.4 - 0.0 - - 10 - - - -
23/10:30am 29.0 SW 9 13 1013.6 - 0.0 - - 10 - - - -
23/10:00am 27.8 SSW 11 14 1013.6 - 0.0 - - 10 - - - -
23/09:30am 26.3 SSW 9 13 1013.5 - 0.0 - - 10 - - - -
23/09:00am 25.1 SW 8 13 1013.4 - 0.0 - - 10 - - - -
23/08:30am 24.4 SSW 8 10 1013.2 - 0.0 - - 10 - - - -
23/08:00am 23.5 SSW 8 9 1012.8 - 0.0 - - 10 - - - -
23/07:30am 22.6 SSW 7 8 1012.3 - 0.0 - - 10 - - - -
23/07:00am 22.0 SSW 7 9 1012.1 - 0.0 - - 10 - - - -
23/06:30am 21.9 SSW 7 10 1011.8 - 0.0 - - 10 - - - -
23/06:00am 22.0 SSW 7 8 1011.7 - 0.0 - - 9 - - - -
23/05:30am 22.2 SSW 7 9 1011.5 - 0.0 - - 10 - - - -
23/05:00am 22.3 SSW 7 9 1011.5 - 0.0 - - 10 - - - -
23/04:30am 22.2 SSW 6 8 1011.5 - 0.0 - - 10 - - - -
23/04:00am 20.6 SSW 4 6 1011.5 - 0.0 - - 10 - - - -
23/03:30am 22.1 SSW 5 7 1011.7 - 0.0 - - 10 - - - -
23/03:00am 21.9 SW 4 6 1011.8 - 0.0 - - 10 - - - -
23/02:30am 22.3 SSW 5 7 1012.1 - 0.0 - - 9 - - - -
23/02:00am 21.9 SW 4 5 1012.3 - 0.0 - - 10 - - - -
23/01:30am 21.3 SSW 3 5 1012.3 - 0.0 - - 10 - - - -
23/01:00am 21.3 SSW 3 4 1012.4 - 0.0 - - 10 - - - -
23/12:30am 21.7 S 5 5 1012.5 - 0.0 - - 10 - - - -
23/12:00am 21.1 ESE 3 4 1012.5 - 0.0 - - 9 - - - -
 
Date/Time
CST
Temp
°C
Wind Pressure Rain since
9am
mm
Weather Cloud Vis
km
Sea
Height
m
Swell
Dir  Spd
kts
Gust
kts
hPa Trend Height
m
Period
s
Dir
22/11:30pm 20.9 E 3 4 1012.5 - 0.0 - - 10 - - - -
22/11:00pm 21.5 E 3 4 1012.7 - 0.0 - - 10 - - - -
22/10:30pm 23.2 ENE 3 4 1012.4 - 0.0 - - 10 - - - -
22/10:00pm 22.9 ENE 4 6 1012.1 - 0.0 - - 10 - - - -
22/09:30pm 23.2 ENE 3 4 1011.8 - 0.0 - - 9 - - - -
22/09:00pm 22.6 ENE 3 5 1011.4 - 0.0 - - 10 - - - -
22/08:30pm 23.0 CALM 0 3 1011.3 - 0.0 - - 10 - - - -
22/08:00pm 24.4 CALM 0 0 1010.8 - 0.0 - - 10 - - - -
22/07:30pm 25.6 NW 2 4 1010.5 - 0.0 - - 10 - - - -

Other Formats:

Comma delimited format used in spreadsheet applications
http://www.bom.gov.au/fwo/IDD60701/IDD60701.95101.axf

JavaScript Object Notation format (JSON) in row-major order
http://www.bom.gov.au/fwo/IDD60701/IDD60701.95101.json